Weather at Faro Airport

Public forecast

Using degrees Celsius for public forecast. Weather courtesy of forecast.io.

Current aviation weather report (METAR) for Faro Airport

Retrieved 2021/04/20 14:00 UTC (11 minutes ago):

LPFR 201400Z 24017KT 9999 FEW025 21/15 Q1015

Aviation forecast (TAF) for Faro Airport

Retrieved 2021/04/20 12:00 UTC (2 hours ago):

TAF LPFR 201100Z 2012/2112 28008KT 9999 SCT025 BECMG 2012/2014 25017KT SCT040 BECMG 2017/2019 31012KT CAVOK BECMG 2102/2104 31005KT BECMG 2110/2112 24017KT 9999 SCT018 BKN035